Time;durP1;ratioP1;P1;durP2;ratioP2;P2;SDS_P1;SDS_P2;PMS_P1;PMS_P2;Temp;Humidity;BMP_temperature;BMP_pressure;BME280_temperature;BME280_humidity;BME280_pressure;Samples;Min_cycle;Max_cycle;Signal;HPM_P1;HPM_P2
2021/04/23 00:02:06;;;;;;;;;;;;;;;;;;5067925;28;19920;-67
2021/04/23 00:04:32;;;;;;;;;;;;;;;;;;5069659;28;20287;-66
2021/04/23 00:06:57;;;;;;;;;;;;;;;;;;5063327;28;19920;-66
2021/04/23 00:09:23;;;;;;;;;;;;;;;;;;5066433;28;19921;-66
2021/04/23 00:11:49;;;;;;;;;;;;;;;;;;5061784;28;20280;-66
2021/04/23 00:14:15;;;;;;;;;;;;;;;;;;5057718;28;20253;-66
2021/04/23 00:16:41;;;;;;;;;;;;;;;;;;5057646;28;19930;-66
2021/04/23 00:19:07;;;;;;;;;;;;;;;;;;5066354;28;19920;-66
2021/04/23 00:21:32;;;;;;;;;;;;;;;;;;5066467;28;19920;-66
2021/04/23 00:23:58;;;;;;;;;;;;;;;;;;5068398;28;19925;-67
2021/04/23 00:26:24;;;;;;;;;;;;;;;;;;5065521;28;19947;-66
2021/04/23 00:28:50;;;;;;;;;;;;;;;;;;5066082;28;19920;-67
2021/04/23 00:31:16;;;;;;;;;;;;;;;;;;5064880;28;19926;-66
2021/04/23 00:33:42;;;;;;;;;;;;;;;;;;5066335;28;19920;-66
2021/04/23 00:36:08;;;;;;;;;;;;;;;;;;5064400;28;19928;-65
2021/04/23 00:38:34;;;;;;;;;;;;;;;;;;5055378;28;19935;-66
2021/04/23 00:41:00;;;;;;;;;;;;;;;;;;5064309;28;19920;-66
2021/04/23 00:43:25;;;;;;;;;;;;;;;;;;5067491;28;19921;-66
2021/04/23 00:45:51;;;;;;;;;;;;;;;;;;5065506;28;19955;-66
2021/04/23 00:48:17;;;;;;;;;;;;;;;;;;5057063;28;19991;-66
2021/04/23 00:50:43;;;;;;;;;;;;;;;;;;5063575;28;19928;-66
2021/04/23 00:53:09;;;;;;;;;;;;;;;;;;5064948;28;19920;-66
2021/04/23 00:55:35;;;;;;;;;;;;;;;;;;5057488;28;19932;-66
2021/04/23 00:58:01;;;;;;;;;;;;;;;;;;5067938;28;19920;-66
2021/04/23 01:00:26;;;;;;;;;;;;;;;;;;5060649;28;19920;-66
2021/04/23 01:02:52;;;;;;;;;;;;;;;;;;5055393;28;19924;-66
2021/04/23 01:05:18;;;;;;;;;;;;;;;;;;5061066;28;19921;-66
2021/04/23 01:07:44;;;;;;;;;;;;;;;;;;5062486;28;19950;-67
2021/04/23 01:10:10;;;;;;;;;;;;;;;;;;5066201;28;19921;-66
2021/04/23 01:12:35;;;;;;;;;;;;;;;;;;5057703;28;19978;-66
2021/04/23 01:15:01;;;;;;;;;;;;;;;;;;5063755;28;20369;-67
2021/04/23 01:17:27;;;;;;;;;;;;;;;;;;5072636;28;19935;-66
2021/04/23 01:19:53;;;;;;;;;;;;;;;;;;5069079;28;19924;-66
2021/04/23 01:22:19;;;;;;;;;;;;;;;;;;5062113;28;20332;-66
2021/04/23 01:24:45;;;;;;;;;;;;;;;;;;5056733;28;19978;-66
2021/04/23 01:27:11;;;;;;;;;;;;;;;;;;5071509;28;19946;-66
2021/04/23 01:29:37;;;;;;;;;;;;;;;;;;5063430;28;19930;-65
2021/04/23 01:32:02;;;;;;;;;;;;;;;;;;5063457;28;19921;-66
2021/04/23 01:34:29;;;;;;;;;;;;;;;;;;5069317;28;19921;-66
2021/04/23 01:36:55;;;;;;;;;;;;;;;;;;5066291;28;20435;-66
2021/04/23 01:39:21;;;;;;;;;;;;;;;;;;5064137;28;19920;-66
2021/04/23 01:41:47;;;;;;;;;;;;;;;;;;5068751;28;19924;-66
2021/04/23 01:44:12;;;;;;;;;;;;;;;;;;5064134;28;19921;-66
2021/04/23 01:46:38;;;;;;;;;;;;;;;;;;5063776;28;19928;-66
2021/04/23 01:49:04;;;;;;;;;;;;;;;;;;5072791;28;19921;-66
2021/04/23 01:51:30;;;;;;;;;;;;;;;;;;5071495;28;19924;-66
2021/04/23 01:53:56;;;;;;;;;;;;;;;;;;5066773;28;19920;-66
2021/04/23 01:56:22;;;;;;;;;;;;;;;;;;5071772;28;19920;-66
2021/04/23 01:58:47;;;;;;;;;;;;;;;;;;5065908;28;19924;-66
2021/04/23 02:01:14;;;;;;;;;;;;;;;;;;5060152;28;19920;-66
2021/04/23 02:03:40;;;;;;;;;;;;;;;;;;5072465;28;19927;-66
2021/04/23 02:06:08;;;;;;;;;;;;;;;;;;5074954;28;19919;-66
2021/04/23 02:08:34;;;;;;;;;;;;;;;;;;5069706;28;20299;-66
2021/04/23 02:11:00;;;;;;;;;;;;;;;;;;5074403;28;19929;-66
2021/04/23 02:13:26;;;;;;;;;;;;;;;;;;5065727;28;19928;-66
2021/04/23 02:15:51;;;;;;;;;;;;;;;;;;5068912;28;19924;-66
2021/04/23 02:18:17;;;;;;;;;;;;;;;;;;5068705;28;19921;-66
2021/04/23 02:20:43;;;;;;;;;;;;;;;;;;5071393;28;19991;-66
2021/04/23 02:23:09;;;;;;;;;;;;;;;;;;5070619;28;19928;-66
2021/04/23 02:25:36;;;;;;;;;;;;;;;;;;5072133;28;20498;-67
2021/04/23 02:28:02;;;;;;;;;;;;;;;;;;5069240;28;19920;-66
2021/04/23 02:30:28;;;;;;;;;;;;;;;;;;5070476;28;19927;-66
2021/04/23 02:32:54;;;;;;;;;;;;;;;;;;5058817;28;20911;-66
2021/04/23 02:35:20;;;;;;;;;;;;;;;;;;5069580;28;19920;-66
2021/04/23 02:37:45;;;;;;;;;;;;;;;;;;5067779;28;19975;-67
2021/04/23 02:40:11;;;;;;;;;;;;;;;;;;5064690;28;19921;-66
2021/04/23 02:42:37;;;;;;;;;;;;;;;;;;5081262;28;19924;-66
2021/04/23 02:45:03;;;;;;;;;;;;;;;;;;5066459;28;19973;-66
2021/04/23 02:47:29;;;;;;;;;;;;;;;;;;5067630;28;20372;-66
2021/04/23 02:49:55;;;;;;;;;;;;;;;;;;5068706;28;19950;-67
2021/04/23 02:52:20;;;;;;;;;;;;;;;;;;5064685;28;19932;-66
2021/04/23 02:54:46;;;;;;;;;;;;;;;;;;5065483;28;19920;-66
2021/04/23 02:57:12;;;;;;;;;;;;;;;;;;5062040;28;19920;-66
2021/04/23 02:59:38;;;;;;;;;;;;;;;;;;5070304;28;19920;-66
2021/04/23 03:02:04;;;;;;;;;;;;;;;;;;5065811;28;19921;-66
2021/04/23 03:04:30;;;;;;;;;;;;;;;;;;5070658;28;19982;-67
2021/04/23 03:06:56;;;;;;;;;;;;;;;;;;5073356;28;20461;-66
2021/04/23 03:09:22;;;;;;;;;;;;;;;;;;5063132;28;20023;-66
2021/04/23 03:11:47;;;;;;;;;;;;;;;;;;5066871;28;19951;-67
2021/04/23 03:14:13;;;;;;;;;;;;;;;;;;5076956;28;20342;-66
2021/04/23 03:16:39;;;;;;;;;;;;;;;;;;5067179;28;19928;-66
2021/04/23 03:19:05;;;;;;;;;;;;;;;;;;5064438;28;19921;-66
2021/04/23 03:21:31;;;;;;;;;;;;;;;;;;5070330;28;19924;-67
2021/04/23 03:23:57;;;;;;;;;;;;;;;;;;5061667;28;20312;-66
2021/04/23 03:26:23;;;;;;;;;;;;;;;;;;5064220;28;19955;-66
2021/04/23 03:28:49;;;;;;;;;;;;;;;;;;5068939;28;19921;-67
2021/04/23 03:31:16;;;;;;;;;;;;;;;;;;5059629;28;20444;-66
2021/04/23 03:33:41;;;;;;;;;;;;;;;;;;5063190;28;19928;-66
2021/04/23 03:36:09;;;;;;;;;;;;;;;;;;5058246;28;19921;-66
2021/04/23 03:38:35;;;;;;;;;;;;;;;;;;5065720;28;19921;-66
2021/04/23 03:41:00;;;;;;;;;;;;;;;;;;5058898;28;19935;-66
2021/04/23 03:43:26;;;;;;;;;;;;;;;;;;5071449;28;20304;-66
2021/04/23 03:45:53;;;;;;;;;;;;;;;;;;5066422;28;19928;-66
2021/04/23 03:48:20;;;;;;;;;;;;;;;;;;5068209;28;20019;-66
2021/04/23 03:50:46;;;;;;;;;;;;;;;;;;5079729;28;20003;-66
2021/04/23 03:53:11;;;;;;;;;;;;;;;;;;5069285;28;20017;-66
2021/04/23 03:55:37;;;;;;;;;;;;;;;;;;5063026;28;20552;-66
2021/04/23 03:58:03;;;;;;;;;;;;;;;;;;5058594;28;19920;-66
2021/04/23 04:00:29;;;;;;;;;;;;;;;;;;5067652;28;19920;-66
2021/04/23 04:02:55;;;;;;;;;;;;;;;;;;5067590;28;20428;-66
2021/04/23 04:05:21;;;;;;;;;;;;;;;;;;5056066;28;20325;-66
2021/04/23 04:07:47;;;;;;;;;;;;;;;;;;5066451;28;19931;-66
2021/04/23 04:10:13;;;;;;;;;;;;;;;;;;5062499;28;19928;-66
2021/04/23 04:12:38;;;;;;;;;;;;;;;;;;5059950;28;19928;-66
2021/04/23 04:15:06;;;;;;;;;;;;;;;;;;5068729;28;19930;-66
2021/04/23 04:17:32;;;;;;;;;;;;;;;;;;5072123;28;20402;-66
2021/04/23 04:19:58;;;;;;;;;;;;;;;;;;5067494;28;20448;-66
2021/04/23 04:22:23;;;;;;;;;;;;;;;;;;5064733;28;19920;-66
2021/04/23 04:24:49;;;;;;;;;;;;;;;;;;5068255;28;19920;-67
2021/04/23 04:27:15;;;;;;;;;;;;;;;;;;5061058;28;20112;-66
2021/04/23 04:29:41;;;;;;;;;;;;;;;;;;5065771;28;19924;-66
2021/04/23 04:32:07;;;;;;;;;;;;;;;;;;5067328;28;19920;-66
2021/04/23 04:34:33;;;;;;;;;;;;;;;;;;5066039;28;19930;-66
2021/04/23 04:36:58;;;;;;;;;;;;;;;;;;5058040;28;19921;-66
2021/04/23 04:39:24;;;;;;;;;;;;;;;;;;5058873;28;19921;-66
2021/04/23 04:41:50;;;;;;;;;;;;;;;;;;5059483;28;20305;-67
2021/04/23 04:44:16;;;;;;;;;;;;;;;;;;5069267;28;20448;-67
2021/04/23 04:46:42;;;;;;;;;;;;;;;;;;5067519;28;19967;-69
2021/04/23 04:49:08;;;;;;;;;;;;;;;;;;5064613;28;19927;-69
2021/04/23 04:51:34;;;;;;;;;;;;;;;;;;5067245;28;20486;-69
2021/04/23 04:54:00;;;;;;;;;;;;;;;;;;5071744;28;19935;-69
2021/04/23 04:56:26;;;;;;;;;;;;;;;;;;5068299;28;20304;-69
2021/04/23 04:58:52;;;;;;;;;;;;;;;;;;5068237;28;19931;-65
2021/04/23 05:01:18;;;;;;;;;;;;;;;;;;5058952;28;19920;-67
2021/04/23 05:03:45;;;;;;;;;;;;;;;;;;5068251;28;19920;-66
2021/04/23 05:06:12;;;;;;;;;;;;;;;;;;5064547;28;20465;-66
2021/04/23 05:08:38;;;;;;;;;;;;;;;;;;5067771;28;19931;-66
2021/04/23 05:11:04;;;;;;;;;;;;;;;;;;5059824;28;19963;-67
2021/04/23 05:13:30;;;;;;;;;;;;;;;;;;5066077;28;19966;-67
2021/04/23 05:15:56;;;;;;;;;;;;;;;;;;5066263;28;19924;-67
2021/04/23 05:18:21;;;;;;;;;;;;;;;;;;5045218;28;19982;-68
2021/04/23 05:20:47;;;;;;;;;;;;;;;;;;5063503;28;19924;-68
2021/04/23 05:23:13;;;;;;;;;;;;;;;;;;5065414;28;20283;-70
2021/04/23 05:25:39;;;;;;;;;;;;;;;;;;5072137;28;19920;-68
2021/04/23 05:28:05;;;;;;;;;;;;;;;;;;5073196;28;19927;-67
2021/04/23 05:30:31;;;;;;;;;;;;;;;;;;5082827;28;19924;-66
2021/04/23 05:32:57;;;;;;;;;;;;;;;;;;5071650;28;20393;-66
2021/04/23 05:35:24;;;;;;;;;;;;;;;;;;5065506;28;19934;-65
2021/04/23 05:37:50;;;;;;;;;;;;;;;;;;5073031;28;20355;-65
2021/04/23 05:40:17;;;;;;;;;;;;;;;;;;5069294;28;19928;-66
2021/04/23 05:42:43;;;;;;;;;;;;;;;;;;5067186;28;19927;-66
2021/04/23 05:45:08;;;;;;;;;;;;;;;;;;5065253;28;20324;-67
2021/04/23 05:47:34;;;;;;;;;;;;;;;;;;5047992;28;20370;-65
2021/04/23 05:50:00;;;;;;;;;;;;;;;;;;5059012;28;19924;-66
2021/04/23 05:52:27;;;;;;;;;;;;;;;;;;5061066;28;19921;-65
2021/04/23 05:54:53;;;;;;;;;;;;;;;;;;5067271;28;19942;-67
2021/04/23 05:57:19;;;;;;;;;;;;;;;;;;5064540;28;19965;-66
2021/04/23 05:59:45;;;;;;;;;;;;;;;;;;5071633;28;20110;-67
2021/04/23 06:02:11;;;;;;;;;;;;;;;;;;5070260;28;20412;-67
2021/04/23 06:04:37;;;;;;;;;;;;;;;;;;5065208;28;19936;-67
2021/04/23 06:07:03;;;;;;;;;;;;;;;;;;5073543;28;20023;-67
2021/04/23 06:09:28;;;;;;;;;;;;;;;;;;5065485;28;19920;-66
2021/04/23 06:11:55;;;;;;;;;;;;;;;;;;5067448;28;19920;-67
2021/04/23 06:14:23;;;;;;;;;;;;;;;;;;5073038;28;19927;-67
2021/04/23 06:16:49;;;;;;;;;;;;;;;;;;5070588;28;19920;-67
2021/04/23 06:19:15;;;;;;;;;;;;;;;;;;5062563;28;19927;-67
2021/04/23 06:21:40;;;;;;;;;;;;;;;;;;5067730;28;19920;-67
2021/04/23 06:24:06;;;;;;;;;;;;;;;;;;5061506;28;19924;-67
2021/04/23 06:26:32;;;;;;;;;;;;;;;;;;5063543;28;20265;-67
2021/04/23 06:28:58;;;;;;;;;;;;;;;;;;5068306;28;19927;-66
2021/04/23 06:31:24;;;;;;;;;;;;;;;;;;5061873;28;20030;-65
2021/04/23 06:33:51;;;;;;;;;;;;;;;;;;5064513;28;20356;-66
2021/04/23 06:36:18;;;;;;;;;;;;;;;;;;5063317;28;20339;-65
2021/04/23 06:38:44;;;;;;;;;;;;;;;;;;5066811;28;19920;-66
2021/04/23 06:41:10;;;;;;;;;;;;;;;;;;5065220;28;19963;-67
2021/04/23 06:43:36;;;;;;;;;;;;;;;;;;5069103;28;19924;-66
2021/04/23 06:46:02;;;;;;;;;;;;;;;;;;5059478;28;19920;-67
2021/04/23 06:48:28;;;;;;;;;;;;;;;;;;5058423;28;20422;-65
2021/04/23 06:50:54;;;;;;;;;;;;;;;;;;5070218;28;19928;-67
2021/04/23 06:53:21;;;;;;;;;;;;;;;;;;5066438;28;19921;-66
2021/04/23 06:55:47;;;;;;;;;;;;;;;;;;5062339;28;19924;-67
2021/04/23 06:58:12;;;;;;;;;;;;;;;;;;5069160;28;20388;-68
2021/04/23 07:00:38;;;;;;;;;;;;;;;;;;5069354;28;19925;-66
2021/04/23 07:03:04;;;;;;;;;;;;;;;;;;5071438;28;19928;-65
2021/04/23 07:05:30;;;;;;;;;;;;;;;;;;5066851;28;19920;-67
2021/04/23 07:07:56;;;;;;;;;;;;;;;;;;5064519;28;19928;-66
2021/04/23 07:10:22;;;;;;;;;;;;;;;;;;5070807;28;19921;-67
2021/04/23 07:12:48;;;;;;;;;;;;;;;;;;5070072;28;19920;-66
2021/04/23 07:15:15;;;;;;;;;;;;;;;;;;5066594;28;19966;-66
2021/04/23 07:17:43;;;;;;;;;;;;;;;;;;5071828;28;19920;-66
2021/04/23 07:20:29;;;;;;;;;;;;;;;;;;5064688;28;19978;-65
2021/04/23 07:22:55;;;;;;;;;;;;;;;;;;5058101;28;19928;-67
2021/04/23 07:25:22;;;;;;;;;;;;;;;;;;5065429;28;19966;-67
2021/04/23 07:27:49;;;;;;;;;;;;;;;;;;5064464;28;19920;-66
2021/04/23 07:30:15;;;;;;;;;;;;;;;;;;5062021;28;19931;-67
2021/04/23 07:32:41;;;;;;;;;;;;;;;;;;5064857;28;20261;-67
2021/04/23 07:35:07;;;;;;;;;;;;;;;;;;5068138;28;19928;-66
2021/04/23 07:37:33;;;;;;;;;;;;;;;;;;5067021;28;19974;-67
2021/04/23 07:39:59;;;;;;;;;;;;;;;;;;5067820;28;20172;-66
2021/04/23 07:42:25;;;;;;;;;;;;;;;;;;5062327;28;20602;-67
2021/04/23 07:44:50;;;;;;;;;;;;;;;;;;5067217;28;19959;-66
2021/04/23 07:47:16;;;;;;;;;;;;;;;;;;5061807;28;19925;-65
2021/04/23 07:49:46;;;;;;;;;;;;;;;;;;5057854;28;19920;-68
2021/04/23 07:52:16;;;;;;;;;;;;;;;;;;5068748;28;19931;-66
2021/04/23 07:54:42;;;;;;;;;;;;;;;;;;5065108;28;20350;-68
2021/04/23 07:57:08;;;;;;;;;;;;;;;;;;5066048;28;20042;-63
2021/04/23 07:59:34;;;;;;;;;;;;;;;;;;5061840;28;20331;-63
2021/04/23 08:02:01;;;;;;;;;;;;;;;;;;5064146;28;19920;-67
2021/04/23 08:04:30;;;;;;;;;;;;;;;;;;5065203;28;19935;-68
2021/04/23 08:06:55;;;;;;;;;;;;;;;;;;5068137;28;19960;-68
2021/04/23 08:09:21;;;;;;;;;;;;;;;;;;5065055;28;19921;-68
2021/04/23 08:11:47;;;;;;;;;;;;;;;;;;5063451;28;19920;-68
2021/04/23 08:14:13;;;;;;;;;;;;;;;;;;5066463;28;19921;-68
2021/04/23 08:16:39;;;;;;;;;;;;;;;;;;5061643;28;19924;-67
2021/04/23 08:19:05;;;;;;;;;;;;;;;;;;5064214;28;19958;-66
2021/04/23 08:21:31;;;;;;;;;;;;;;;;;;5071504;28;19944;-67
2021/04/23 08:23:57;;;;;;;;;;;;;;;;;;5065519;28;20376;-68
2021/04/23 08:26:24;;;;;;;;;;;;;;;;;;5059373;28;20284;-68
2021/04/23 08:28:50;;;;;;;;;;;;;;;;;;5070212;28;20390;-67
2021/04/23 08:31:16;;;;;;;;;;;;;;;;;;5060169;28;19924;-67
2021/04/23 08:33:44;;;;;;;;;;;;;;;;;;5061784;28;19939;-67
2021/04/23 08:36:10;;;;;;;;;;;;;;;;;;5064577;28;19920;-67
2021/04/23 08:38:36;;;;;;;;;;;;;;;;;;5061764;28;19935;-67
2021/04/23 08:41:02;;;;;;;;;;;;;;;;;;5064997;28;20388;-67
2021/04/23 08:43:28;;;;;;;;;;;;;;;;;;5066798;28;19964;-68
2021/04/23 08:45:54;;;;;;;;;;;;;;;;;;5063428;28;19920;-67
2021/04/23 08:48:19;;;;;;;;;;;;;;;;;;5054550;28;19936;-67
2021/04/23 08:50:45;;;;;;;;;;;;;;;;;;5065566;28;19928;-67
2021/04/23 08:53:11;;;;;;;;;;;;;;;;;;5065482;28;20274;-68
2021/04/23 08:55:37;;;;;;;;;;;;;;;;;;5064119;28;19928;-69
2021/04/23 08:58:10;;;;;;;;;;;;;;;;;;5069468;28;20390;-67
2021/04/23 09:00:36;;;;;;;;;;;;;;;;;;5064406;28;19932;-68
2021/04/23 09:03:02;;;;;;;;;;;;;;;;;;5064273;28;19935;-68
2021/04/23 09:05:28;;;;;;;;;;;;;;;;;;5064259;28;19925;-67
2021/04/23 09:07:54;;;;;;;;;;;;;;;;;;5064730;28;19928;-69
2021/04/23 09:10:20;;;;;;;;;;;;;;;;;;5065302;28;19931;-67
2021/04/23 09:12:45;;;;;;;;;;;;;;;;;;5059461;28;20000;-68
2021/04/23 09:15:11;;;;;;;;;;;;;;;;;;5064959;28;19927;-67
2021/04/23 09:17:37;;;;;;;;;;;;;;;;;;5067281;28;19955;-68
2021/04/23 09:20:03;;;;;;;;;;;;;;;;;;5061910;28;19920;-68
2021/04/23 09:22:30;;;;;;;;;;;;;;;;;;5054460;28;19982;-68
2021/04/23 09:24:55;;;;;;;;;;;;;;;;;;5060936;28;20304;-69
2021/04/23 09:27:21;;;;;;;;;;;;;;;;;;5061268;28;19967;-68
2021/04/23 09:29:47;;;;;;;;;;;;;;;;;;5066052;28;19928;-66
2021/04/23 09:32:13;;;;;;;;;;;;;;;;;;5058179;28;20303;-68
2021/04/23 09:34:39;;;;;;;;;;;;;;;;;;5061338;28;19925;-68
2021/04/23 09:37:05;;;;;;;;;;;;;;;;;;5064359;28;19942;-66
2021/04/23 09:39:31;;;;;;;;;;;;;;;;;;5062155;28;20384;-66
2021/04/23 09:41:56;;;;;;;;;;;;;;;;;;5060536;28;19928;-68
2021/04/23 09:44:22;;;;;;;;;;;;;;;;;;5062393;28;19928;-67
2021/04/23 09:46:48;;;;;;;;;;;;;;;;;;5067342;28;19920;-68
2021/04/23 09:49:14;;;;;;;;;;;;;;;;;;5062096;28;19920;-66
2021/04/23 09:51:40;;;;;;;;;;;;;;;;;;5061970;28;19925;-66
2021/04/23 09:54:05;;;;;;;;;;;;;;;;;;5065451;28;19924;-67
2021/04/23 09:56:31;;;;;;;;;;;;;;;;;;5061938;28;19924;-60
2021/04/23 09:58:57;;;;;;;;;;;;;;;;;;5065254;28;19921;-60
2021/04/23 10:01:24;;;;;;;;;;;;;;;;;;5060547;28;19925;-67
2021/04/23 10:03:50;;;;;;;;;;;;;;;;;;5065945;28;19920;-66
2021/04/23 10:06:17;;;;;;;;;;;;;;;;;;5065610;28;20014;-66
2021/04/23 10:08:42;;;;;;;;;;;;;;;;;;5068235;28;20357;-67
2021/04/23 10:11:08;;;;;;;;;;;;;;;;;;5060659;28;20003;-67
2021/04/23 10:13:34;;;;;;;;;;;;;;;;;;5072973;28;19928;-66
2021/04/23 10:16:00;;;;;;;;;;;;;;;;;;5065426;28;19921;-67
2021/04/23 10:18:27;;;;;;;;;;;;;;;;;;5059029;28;20019;-68
2021/04/23 10:20:52;;;;;;;;;;;;;;;;;;5063985;28;19931;-66
2021/04/23 10:23:18;;;;;;;;;;;;;;;;;;5069718;28;19936;-66
2021/04/23 10:25:44;;;;;;;;;;;;;;;;;;5067124;28;19952;-66
2021/04/23 10:28:10;;;;;;;;;;;;;;;;;;5070319;28;19920;-66
2021/04/23 10:30:38;;;;;;;;;;;;;;;;;;5064962;28;19979;-66
2021/04/23 10:33:04;;;;;;;;;;;;;;;;;;5061686;28;19920;-69
2021/04/23 10:35:31;;;;;;;;;;;;;;;;;;5073512;28;19946;-66
2021/04/23 10:37:56;;;;;;;;;;;;;;;;;;5062804;28;19921;-66
2021/04/23 10:40:23;;;;;;;;;;;;;;;;;;5058703;28;19935;-67
2021/04/23 10:42:49;;;;;;;;;;;;;;;;;;5070807;28;19920;-66
2021/04/23 10:45:15;;;;;;;;;;;;;;;;;;5068045;28;19920;-66
2021/04/23 10:47:41;;;;;;;;;;;;;;;;;;5070422;28;19924;-67
2021/04/23 10:50:10;;;;;;;;;;;;;;;;;;5071994;28;19969;-61
2021/04/23 10:52:36;;;;;;;;;;;;;;;;;;5070650;28;19928;-62
2021/04/23 10:55:02;;;;;;;;;;;;;;;;;;5072441;28;19920;-63
2021/04/23 10:57:28;;;;;;;;;;;;;;;;;;5072781;28;19936;-63
2021/04/23 10:59:56;;;;;;;;;;;;;;;;;;5064209;28;19928;-63
2021/04/23 11:02:22;;;;;;;;;;;;;;;;;;5066252;28;19982;-63
2021/04/23 11:04:48;;;;;;;;;;;;;;;;;;5074300;28;19920;-63
2021/04/23 11:07:14;;;;;;;;;;;;;;;;;;5070989;28;19920;-62
2021/04/23 11:09:43;;;;;;;;;;;;;;;;;;5065846;28;20369;-63
2021/04/23 11:12:08;;;;;;;;;;;;;;;;;;5070323;28;19921;-64
2021/04/23 11:14:35;;;;;;;;;;;;;;;;;;5065321;28;19920;-63
2021/04/23 11:17:01;;;;;;;;;;;;;;;;;;5067825;28;20296;-63
2021/04/23 11:19:32;;;;;;;;;;;;;;;;;;5069981;28;19920;-62
2021/04/23 11:21:57;;;;;;;;;;;;;;;;;;5067608;28;19923;-64
2021/04/23 11:24:23;;;;;;;;;;;;;;;;;;5072886;28;20291;-63
2021/04/23 11:26:49;;;;;;;;;;;;;;;;;;5069166;28;19920;-61
2021/04/23 11:29:15;;;;;;;;;;;;;;;;;;5065437;28;19928;-61
2021/04/23 11:31:41;;;;;;;;;;;;;;;;;;5072984;28;19921;-62
2021/04/23 11:34:06;;;;;;;;;;;;;;;;;;5059467;28;19936;-61
2021/04/23 11:36:33;;;;;;;;;;;;;;;;;;5070911;28;19939;-62
2021/04/23 11:38:59;;;;;;;;;;;;;;;;;;5071087;28;19920;-62
2021/04/23 11:41:25;;;;;;;;;;;;;;;;;;5064645;28;19927;-61
2021/04/23 11:43:51;;;;;;;;;;;;;;;;;;5069361;28;20364;-61
2021/04/23 11:46:17;;;;;;;;;;;;;;;;;;5071510;28;20453;-61
2021/04/23 11:48:43;;;;;;;;;;;;;;;;;;5067270;28;19924;-61
2021/04/23 11:51:09;;;;;;;;;;;;;;;;;;5066276;28;19963;-61
2021/04/23 11:53:35;;;;;;;;;;;;;;;;;;5074418;28;19928;-61
2021/04/23 11:56:01;;;;;;;;;;;;;;;;;;5065060;28;19933;-61
2021/04/23 11:58:27;;;;;;;;;;;;;;;;;;5065568;28;19921;-61
2021/04/23 12:00:53;;;;;;;;;;;;;;;;;;5067371;28;19931;-61
2021/04/23 12:03:19;;;;;;;;;;;;;;;;;;5066881;28;20347;-61
2021/04/23 12:05:46;;;;;;;;;;;;;;;;;;5067227;28;19927;-61
2021/04/23 12:08:12;;;;;;;;;;;;;;;;;;5065380;28;19955;-61
2021/04/23 12:10:38;;;;;;;;;;;;;;;;;;5063979;28;19946;-61
2021/04/23 12:13:04;;;;;;;;;;;;;;;;;;5070695;28;19920;-62
2021/04/23 12:15:29;;;;;;;;;;;;;;;;;;5067193;28;19927;-62
2021/04/23 12:17:55;;;;;;;;;;;;;;;;;;5066586;28;19928;-62
2021/04/23 12:20:21;;;;;;;;;;;;;;;;;;5067799;28;19986;-61
2021/04/23 12:22:47;;;;;;;;;;;;;;;;;;5065590;28;19920;-62
2021/04/23 12:25:13;;;;;;;;;;;;;;;;;;5063369;28;19924;-71
2021/04/23 12:27:39;;;;;;;;;;;;;;;;;;5065816;28;19920;-71
2021/04/23 12:30:05;;;;;;;;;;;;;;;;;;5062706;28;19920;-70
2021/04/23 12:32:30;;;;;;;;;;;;;;;;;;5062558;28;19935;-70
2021/04/23 12:34:56;;;;;;;;;;;;;;;;;;5073771;28;20406;-71
2021/04/23 12:37:23;;;;;;;;;;;;;;;;;;5070476;28;19920;-71
2021/04/23 12:39:49;;;;;;;;;;;;;;;;;;5067059;28;20394;-70
2021/04/23 12:42:17;;;;;;;;;;;;;;;;;;5069298;28;19964;-71
2021/04/23 12:44:43;;;;;;;;;;;;;;;;;;5066770;28;19932;-71
2021/04/23 12:47:09;;;;;;;;;;;;;;;;;;5074778;28;20308;-71
2021/04/23 12:49:34;;;;;;;;;;;;;;;;;;5077124;28;19962;-70
2021/04/23 12:52:00;;;;;;;;;;;;;;;;;;5070771;28;19928;-70
2021/04/23 12:54:26;;;;;;;;;;;;;;;;;;5070525;28;19928;-71
2021/04/23 12:56:52;;;;;;;;;;;;;;;;;;5064615;28;20369;-70
2021/04/23 12:59:18;;;;;;;;;;;;;;;;;;5062611;28;20364;-71
2021/04/23 13:01:44;;;;;;;;;;;;;;;;;;5063606;28;19920;-71
2021/04/23 13:04:10;;;;;;;;;;;;;;;;;;5068750;28;19928;-72
2021/04/23 13:06:35;;;;;;;;;;;;;;;;;;5072733;28;20472;-70
2021/04/23 13:09:01;;;;;;;;;;;;;;;;;;5074066;28;20387;-70
2021/04/23 13:11:27;;;;;;;;;;;;;;;;;;5076230;28;19927;-70
2021/04/23 13:13:53;;;;;;;;;;;;;;;;;;5068637;28;20007;-71
2021/04/23 13:16:19;;;;;;;;;;;;;;;;;;5072662;28;19921;-71
2021/04/23 13:18:45;;;;;;;;;;;;;;;;;;5075507;28;19920;-71
2021/04/23 13:21:12;;;;;;;;;;;;;;;;;;5075333;28;20431;-69
2021/04/23 13:23:38;;;;;;;;;;;;;;;;;;5078043;28;19967;-70
2021/04/23 13:26:04;;;;;;;;;;;;;;;;;;5068186;28;20308;-70
2021/04/23 13:28:30;;;;;;;;;;;;;;;;;;5068186;28;19921;-70
2021/04/23 13:30:56;;;;;;;;;;;;;;;;;;5072376;28;19927;-70
2021/04/23 13:33:22;;;;;;;;;;;;;;;;;;5069505;28;19920;-70
2021/04/23 13:35:48;;;;;;;;;;;;;;;;;;5076097;28;20291;-70
2021/04/23 13:38:14;;;;;;;;;;;;;;;;;;5079298;28;19920;-70
2021/04/23 13:40:40;;;;;;;;;;;;;;;;;;5069230;28;19924;-69
2021/04/23 13:43:06;;;;;;;;;;;;;;;;;;5070242;28;19928;-70
2021/04/23 13:45:32;;;;;;;;;;;;;;;;;;5065553;28;19924;-70
2021/04/23 13:47:58;;;;;;;;;;;;;;;;;;5072438;28;19927;-69
2021/04/23 13:50:23;;;;;;;;;;;;;;;;;;5071044;28;19924;-70
2021/04/23 13:52:49;;;;;;;;;;;;;;;;;;5071008;28;19920;-70
2021/04/23 13:55:16;;;;;;;;;;;;;;;;;;5069270;28;19920;-70
2021/04/23 13:57:41;;;;;;;;;;;;;;;;;;5069066;28;20428;-70
2021/04/23 14:00:07;;;;;;;;;;;;;;;;;;5082459;28;19924;-70
2021/04/23 14:02:33;;;;;;;;;;;;;;;;;;5072664;28;20319;-70
2021/04/23 14:04:59;;;;;;;;;;;;;;;;;;5068182;28;19987;-70
2021/04/23 14:07:26;;;;;;;;;;;;;;;;;;5066830;28;19927;-70
2021/04/23 14:09:52;;;;;;;;;;;;;;;;;;5066152;28;19927;-70
2021/04/23 14:12:19;;;;;;;;;;;;;;;;;;5068225;28;19978;-70
2021/04/23 14:14:45;;;;;;;;;;;;;;;;;;5074651;28;19957;-70
2021/04/23 14:17:11;;;;;;;;;;;;;;;;;;5064441;28;19925;-70
2021/04/23 14:19:37;;;;;;;;;;;;;;;;;;5069579;28;19932;-70
2021/04/23 14:22:03;;;;;;;;;;;;;;;;;;5083902;28;20279;-69
2021/04/23 14:24:30;;;;;;;;;;;;;;;;;;5075969;28;19924;-70
2021/04/23 14:26:56;;;;;;;;;;;;;;;;;;5068274;28;20349;-70
2021/04/23 14:29:21;;;;;;;;;;;;;;;;;;5076126;28;19931;-70
2021/04/23 14:31:47;;;;;;;;;;;;;;;;;;5073799;28;19927;-70
2021/04/23 14:34:13;;;;;;;;;;;;;;;;;;5083097;28;19920;-73
2021/04/23 14:36:39;;;;;;;;;;;;;;;;;;5071481;28;19931;-70
2021/04/23 14:39:05;;;;;;;;;;;;;;;;;;5072498;28;19920;-70
2021/04/23 14:41:32;;;;;;;;;;;;;;;;;;5071348;28;19925;-70
2021/04/23 14:43:58;;;;;;;;;;;;;;;;;;5069263;28;19921;-70
2021/04/23 14:46:24;;;;;;;;;;;;;;;;;;5069252;28;20369;-69
2021/04/23 14:48:49;;;;;;;;;;;;;;;;;;5076338;28;19971;-69
2021/04/23 14:51:16;;;;;;;;;;;;;;;;;;5068193;28;19928;-70
2021/04/23 14:53:44;;;;;;;;;;;;;;;;;;5066506;28;19928;-70
2021/04/23 14:56:10;;;;;;;;;;;;;;;;;;5074051;28;20015;-70
2021/04/23 14:58:36;;;;;;;;;;;;;;;;;;5073966;28;19931;-70
2021/04/23 15:01:02;;;;;;;;;;;;;;;;;;5078389;28;19920;-70
2021/04/23 15:03:28;;;;;;;;;;;;;;;;;;5070855;28;20019;-70
2021/04/23 15:05:54;;;;;;;;;;;;;;;;;;5075297;28;19955;-70
2021/04/23 15:08:20;;;;;;;;;;;;;;;;;;5085568;28;19942;-70
2021/04/23 15:10:46;;;;;;;;;;;;;;;;;;5072824;28;19920;-70
2021/04/23 15:13:12;;;;;;;;;;;;;;;;;;5066579;28;19927;-70
2021/04/23 15:15:37;;;;;;;;;;;;;;;;;;5075035;28;20362;-70
2021/04/23 15:18:03;;;;;;;;;;;;;;;;;;5069121;28;19920;-70
2021/04/23 15:20:29;;;;;;;;;;;;;;;;;;5070865;28;19929;-69
2021/04/23 15:22:55;;;;;;;;;;;;;;;;;;5069689;28;20182;-70
2021/04/23 15:25:21;;;;;;;;;;;;;;;;;;5071131;28;19928;-69
2021/04/23 15:27:47;;;;;;;;;;;;;;;;;;5071168;28;19966;-69
2021/04/23 15:30:13;;;;;;;;;;;;;;;;;;5066725;28;19967;-69
2021/04/23 15:32:38;;;;;;;;;;;;;;;;;;5072371;28;19927;-69
2021/04/23 15:35:05;;;;;;;;;;;;;;;;;;5073165;28;19975;-68
2021/04/23 15:37:30;;;;;;;;;;;;;;;;;;5065324;28;19967;-69
2021/04/23 15:39:56;;;;;;;;;;;;;;;;;;5069547;28;19924;-68
2021/04/23 15:42:22;;;;;;;;;;;;;;;;;;5067179;28;19920;-69
2021/04/23 15:44:48;;;;;;;;;;;;;;;;;;5071016;28;19920;-69
2021/04/23 15:47:15;;;;;;;;;;;;;;;;;;5070063;28;20646;-71
2021/04/23 15:49:41;;;;;;;;;;;;;;;;;;5069646;28;19948;-70
2021/04/23 15:52:07;;;;;;;;;;;;;;;;;;5072665;28;19927;-71
2021/04/23 15:54:32;;;;;;;;;;;;;;;;;;5068470;28;19924;-71
2021/04/23 15:56:58;;;;;;;;;;;;;;;;;;5067537;28;19921;-71
2021/04/23 15:59:24;;;;;;;;;;;;;;;;;;5072230;28;19935;-71
2021/04/23 16:01:50;;;;;;;;;;;;;;;;;;5069104;28;19920;-68
2021/04/23 16:04:16;;;;;;;;;;;;;;;;;;5062415;28;20419;-69
2021/04/23 16:06:42;;;;;;;;;;;;;;;;;;5070871;28;20015;-71
2021/04/23 16:09:08;;;;;;;;;;;;;;;;;;5068987;28;20287;-72
2021/04/23 16:11:34;;;;;;;;;;;;;;;;;;5071857;28;19924;-70
2021/04/23 16:14:00;;;;;;;;;;;;;;;;;;5069808;28;19920;-70
2021/04/23 16:16:26;;;;;;;;;;;;;;;;;;5069384;28;19927;-71
2021/04/23 16:18:52;;;;;;;;;;;;;;;;;;5066500;28;19920;-70
2021/04/23 16:21:18;;;;;;;;;;;;;;;;;;5068126;28;19990;-70
2021/04/23 16:23:44;;;;;;;;;;;;;;;;;;5069678;28;19928;-70
2021/04/23 16:26:10;;;;;;;;;;;;;;;;;;5065157;28;19921;-69
2021/04/23 16:28:36;;;;;;;;;;;;;;;;;;5070326;28;20671;-69
2021/04/23 16:31:02;;;;;;;;;;;;;;;;;;5064150;28;19928;-69
2021/04/23 16:33:28;;;;;;;;;;;;;;;;;;5065285;28;19960;-71
2021/04/23 16:35:53;;;;;;;;;;;;;;;;;;5070439;28;19924;-67
2021/04/23 16:38:19;;;;;;;;;;;;;;;;;;5069508;28;19924;-67